Time;durP1;ratioP1;P1;durP2;ratioP2;P2;SDS_P1;SDS_P2;PMS_P1;PMS_P2;Temp;Humidity;BMP_temperature;BMP_pressure;BME280_temperature;BME280_humidity;BME280_pressure;Samples;Min_cycle;Max_cycle;Signal;HPM_P1;HPM_P2
2022/07/20 00:00:03;;;;;;;2.15;0.77;;;;;;;;;;2077541;28;20108;-73
2022/07/20 00:01:22;;;;;;;3.72;1.10;;;;;;;;;;2081535;28;20482;-74
2022/07/20 00:02:41;;;;;;;1.45;0.73;;;;;;;;;;2072063;28;20033;-73
2022/07/20 00:04:00;;;;;;;5.22;1.05;;;;;;;;;;2077740;28;20138;-74
2022/07/20 00:05:19;;;;;;;2.78;1.15;;;;;;;;;;2072438;28;20509;-73
2022/07/20 00:06:38;;;;;;;1.20;0.80;;;;;;;;;;2069055;28;20022;-74
2022/07/20 00:07:56;;;;;;;3.92;0.70;;;;;;;;;;2077292;28;20132;-74
2022/07/20 00:12:31;;;;;;;3.28;0.82;;;;;;;;;;2080794;28;20029;-73
2022/07/20 00:13:55;;;;;;;4.00;1.13;;;;;;;;;;2082053;28;20029;-75
2022/07/20 00:15:14;;;;;;;2.78;0.93;;;;;;;;;;2067197;28;20113;-74
2022/07/20 00:16:33;;;;;;;3.58;1.50;;;;;;;;;;2075605;28;20124;-73
2022/07/20 00:17:52;;;;;;;1.58;0.93;;;;;;;;;;2080008;28;20033;-74
2022/07/20 00:19:11;;;;;;;2.08;1.10;;;;;;;;;;2080366;28;20034;-75
2022/07/20 00:20:30;;;;;;;1.75;0.80;;;;;;;;;;2081359;28;20025;-73
2022/07/20 00:21:49;;;;;;;4.70;1.17;;;;;;;;;;2081358;28;20022;-73
2022/07/20 00:23:08;;;;;;;0.95;0.88;;;;;;;;;;2080206;28;20486;-73
2022/07/20 00:24:27;;;;;;;1.95;1.20;;;;;;;;;;2080530;28;20033;-74
2022/07/20 00:25:46;;;;;;;1.85;1.00;;;;;;;;;;2072129;28;20030;-73
2022/07/20 00:27:05;;;;;;;3.20;1.10;;;;;;;;;;2077653;28;20041;-73
2022/07/20 00:28:24;;;;;;;3.03;1.00;;;;;;;;;;2081019;28;20029;-74
2022/07/20 00:29:43;;;;;;;2.38;1.10;;;;;;;;;;2072237;28;20061;-74
2022/07/20 00:31:02;;;;;;;2.75;1.25;;;;;;;;;;2068141;28;20061;-73
2022/07/20 00:32:21;;;;;;;1.55;0.90;;;;;;;;;;2075914;28;20078;-75
2022/07/20 00:33:40;;;;;;;1.90;1.10;;;;;;;;;;2072259;28;20033;-73
2022/07/20 00:35:02;;;;;;;1.50;0.98;;;;;;;;;;2062138;28;20046;-74
2022/07/20 00:36:21;;;;;;;1.73;0.88;;;;;;;;;;2069167;28;20487;-74
2022/07/20 00:37:40;;;;;;;3.47;0.90;;;;;;;;;;2072060;28;20113;-74
2022/07/20 00:38:59;;;;;;;2.70;1.13;;;;;;;;;;2063841;28;20508;-73
2022/07/20 00:40:21;;;;;;;1.17;0.80;;;;;;;;;;2060423;28;20420;-74
2022/07/20 00:41:39;;;;;;;2.53;0.95;;;;;;;;;;2069321;28;20397;-74
2022/07/20 00:42:59;;;;;;;3.90;1.00;;;;;;;;;;2072743;28;20026;-73
2022/07/20 00:44:17;;;;;;;1.45;0.80;;;;;;;;;;2072062;28;20029;-73
2022/07/20 00:45:37;;;;;;;2.20;1.08;;;;;;;;;;2063882;28;20113;-73
2022/07/20 00:46:55;;;;;;;2.97;1.10;;;;;;;;;;2069233;28;20034;-77
2022/07/20 00:48:14;;;;;;;1.35;1.05;;;;;;;;;;2072982;28;20022;-74
2022/07/20 00:49:33;;;;;;;1.30;0.70;;;;;;;;;;2072280;28;20466;-74
2022/07/20 00:50:52;;;;;;;1.38;0.88;;;;;;;;;;2072771;28;20492;-74
2022/07/20 00:52:11;;;;;;;2.65;1.00;;;;;;;;;;2072533;28;20030;-73
2022/07/20 00:53:30;;;;;;;3.80;0.80;;;;;;;;;;2063386;28;20034;-73
2022/07/20 00:54:49;;;;;;;2.92;1.15;;;;;;;;;;2065782;28;20030;-73
2022/07/20 00:56:09;;;;;;;1.20;1.10;;;;;;;;;;2070811;28;20026;-73
2022/07/20 00:57:28;;;;;;;1.80;0.93;;;;;;;;;;2072725;28;20038;-74
2022/07/20 00:58:47;;;;;;;1.98;0.93;;;;;;;;;;2064151;28;20046;-74
2022/07/20 01:00:07;;;;;;;2.35;0.80;;;;;;;;;;2065027;28;20499;-73
2022/07/20 01:01:26;;;;;;;1.50;0.80;;;;;;;;;;2059580;28;20019;-73
2022/07/20 01:02:45;;;;;;;1.00;0.90;;;;;;;;;;2059311;28;20073;-73
2022/07/20 01:04:05;;;;;;;1.35;1.08;;;;;;;;;;2069329;28;20483;-73
2022/07/20 01:05:24;;;;;;;1.15;1.00;;;;;;;;;;2072360;28;20030;-73
2022/07/20 01:06:43;;;;;;;1.52;0.93;;;;;;;;;;2072527;28;20458;-74
2022/07/20 01:08:02;;;;;;;1.90;0.93;;;;;;;;;;2063604;28;20062;-75
2022/07/20 01:09:21;;;;;;;0.70;0.70;;;;;;;;;;2068910;28;20026;-73
2022/07/20 01:10:40;;;;;;;1.98;0.85;;;;;;;;;;2072829;28;20037;-74
2022/07/20 01:11:59;;;;;;;1.00;0.90;;;;;;;;;;2072262;28;20061;-73
2022/07/20 01:13:18;;;;;;;2.20;1.00;;;;;;;;;;2072448;28;20034;-73
2022/07/20 01:14:37;;;;;;;1.25;0.80;;;;;;;;;;2063951;28;20129;-74
2022/07/20 01:15:56;;;;;;;1.33;0.90;;;;;;;;;;2069395;28;20073;-74
2022/07/20 01:17:14;;;;;;;1.05;0.73;;;;;;;;;;2072793;28;20439;-73
2022/07/20 01:18:33;;;;;;;0.85;0.80;;;;;;;;;;2064076;28;20031;-73
2022/07/20 01:19:52;;;;;;;4.32;1.08;;;;;;;;;;2068751;28;20042;-74
2022/07/20 01:21:11;;;;;;;1.25;1.02;;;;;;;;;;2068454;28;20511;-73
2022/07/20 01:22:30;;;;;;;1.27;0.80;;;;;;;;;;2062489;28;20038;-73
2022/07/20 01:23:49;;;;;;;1.52;1.10;;;;;;;;;;2068635;28;20112;-73
2022/07/20 01:25:07;;;;;;;1.77;1.20;;;;;;;;;;2063620;28;20035;-73
2022/07/20 01:26:26;;;;;;;4.78;1.10;;;;;;;;;;2066493;28;20018;-74
2022/07/20 01:27:45;;;;;;;1.80;1.20;;;;;;;;;;2063858;28;20022;-74
2022/07/20 01:29:04;;;;;;;1.52;1.13;;;;;;;;;;2066047;28;20042;-73
2022/07/20 01:30:23;;;;;;;1.00;0.90;;;;;;;;;;2072811;28;20037;-76
2022/07/20 01:31:42;;;;;;;3.38;1.10;;;;;;;;;;2064092;28;20026;-73
2022/07/20 01:33:01;;;;;;;1.35;1.10;;;;;;;;;;2068725;28;20030;-73
2022/07/20 01:34:20;;;;;;;1.73;0.95;;;;;;;;;;2073087;28;20030;-73
2022/07/20 01:35:39;;;;;;;2.22;1.10;;;;;;;;;;2082656;28;20429;-74
2022/07/20 01:36:58;;;;;;;1.45;1.10;;;;;;;;;;2073383;28;20034;-74
2022/07/20 01:38:17;;;;;;;0.93;0.90;;;;;;;;;;2066913;28;20042;-73
2022/07/20 01:39:36;;;;;;;1.27;0.98;;;;;;;;;;2076980;28;20506;-73
2022/07/20 01:40:54;;;;;;;1.48;1.00;;;;;;;;;;2081879;28;20129;-73
2022/07/20 01:42:13;;;;;;;1.73;0.93;;;;;;;;;;2073163;28;20117;-73
2022/07/20 01:43:32;;;;;;;1.65;1.17;;;;;;;;;;2079104;28;20029;-74
2022/07/20 01:44:51;;;;;;;2.50;1.20;;;;;;;;;;2082706;28;20034;-74
2022/07/20 01:46:10;;;;;;;2.88;1.40;;;;;;;;;;2073217;28;20018;-73
2022/07/20 01:47:28;;;;;;;1.20;1.10;;;;;;;;;;2078670;28;20026;-74
2022/07/20 01:48:47;;;;;;;1.80;1.30;;;;;;;;;;2082258;28;20033;-73
2022/07/20 01:50:06;;;;;;;0.77;0.75;;;;;;;;;;2073836;28;20034;-74
2022/07/20 01:51:25;;;;;;;2.92;1.20;;;;;;;;;;2070202;28;20025;-73
2022/07/20 01:52:44;;;;;;;1.33;1.02;;;;;;;;;;2078545;28;20108;-74
2022/07/20 01:54:03;;;;;;;1.83;1.00;;;;;;;;;;2073329;28;20041;-73
2022/07/20 01:55:22;;;;;;;1.58;1.00;;;;;;;;;;2069865;28;20044;-74
2022/07/20 01:56:41;;;;;;;1.88;1.00;;;;;;;;;;2070215;28;20038;-73
2022/07/20 01:58:00;;;;;;;1.30;0.90;;;;;;;;;;2065174;28;20029;-74
2022/07/20 01:59:19;;;;;;;1.17;1.08;;;;;;;;;;2078564;28;20025;-73
2022/07/20 02:00:38;;;;;;;1.88;1.30;;;;;;;;;;2082561;28;20483;-73
2022/07/20 02:01:57;;;;;;;1.15;0.95;;;;;;;;;;2073436;28;20030;-74
2022/07/20 02:03:16;;;;;;;2.08;1.15;;;;;;;;;;2078620;28;20108;-73
2022/07/20 02:04:35;;;;;;;1.55;1.00;;;;;;;;;;2081770;28;20076;-73
2022/07/20 02:05:54;;;;;;;1.45;1.30;;;;;;;;;;2082593;28;20387;-74
2022/07/20 02:07:13;;;;;;;1.48;1.10;;;;;;;;;;2073307;28;20029;-73
2022/07/20 02:08:32;;;;;;;1.73;1.48;;;;;;;;;;2073403;28;20583;-73
2022/07/20 02:09:51;;;;;;;1.55;1.40;;;;;;;;;;2077969;28;20445;-73
2022/07/20 02:11:10;;;;;;;1.23;1.13;;;;;;;;;;2072976;28;20030;-77
2022/07/20 02:12:28;;;;;;;1.60;1.50;;;;;;;;;;2078809;28;20034;-74
2022/07/20 02:13:47;;;;;;;2.85;1.42;;;;;;;;;;2081765;28;20632;-73
2022/07/20 02:15:08;;;;;;;1.52;1.20;;;;;;;;;;2072338;28;20045;-73
2022/07/20 02:16:27;;;;;;;1.42;0.95;;;;;;;;;;2077273;28;20037;-73
2022/07/20 02:17:46;;;;;;;1.70;1.17;;;;;;;;;;2072731;28;20034;-74
2022/07/20 02:19:05;;;;;;;1.65;1.35;;;;;;;;;;2078611;28;20041;-74
2022/07/20 02:20:24;;;;;;;2.15;1.88;;;;;;;;;;2073200;28;20034;-73
2022/07/20 02:21:43;;;;;;;2.08;1.90;;;;;;;;;;2077427;28;20025;-73
2022/07/20 02:23:03;;;;;;;4.07;2.25;;;;;;;;;;2081830;28;20107;-73
2022/07/20 02:24:21;;;;;;;2.45;2.05;;;;;;;;;;2081322;28;20029;-74
2022/07/20 02:25:40;;;;;;;2.13;1.70;;;;;;;;;;2072572;28;20508;-73
2022/07/20 02:26:59;;;;;;;2.10;2.00;;;;;;;;;;2078679;28;20061;-74
2022/07/20 02:28:18;;;;;;;2.53;1.70;;;;;;;;;;2081701;28;20037;-73
2022/07/20 02:29:37;;;;;;;1.83;1.60;;;;;;;;;;2081613;28;21936;-73
2022/07/20 02:30:56;;;;;;;2.25;2.05;;;;;;;;;;2072873;28;20030;-76
2022/07/20 02:32:15;;;;;;;3.78;2.00;;;;;;;;;;2067683;28;20522;-73
2022/07/20 02:33:33;;;;;;;1.65;1.55;;;;;;;;;;2076529;28;20443;-73
2022/07/20 02:34:52;;;;;;;1.70;1.60;;;;;;;;;;2081344;28;20045;-73
2022/07/20 02:36:11;;;;;;;1.65;1.50;;;;;;;;;;2081462;28;20022;-77
2022/07/20 02:37:30;;;;;;;1.90;1.60;;;;;;;;;;2081337;28;20033;-72
2022/07/20 02:38:49;;;;;;;1.75;1.63;;;;;;;;;;2081004;28;20037;-73
2022/07/20 02:40:08;;;;;;;1.88;1.48;;;;;;;;;;2073258;28;20113;-74
2022/07/20 02:41:27;;;;;;;1.85;1.40;;;;;;;;;;2070163;28;20025;-73
2022/07/20 02:42:46;;;;;;;2.17;1.42;;;;;;;;;;2077974;28;20034;-73
2022/07/20 02:44:05;;;;;;;1.60;1.42;;;;;;;;;;2072304;28;20030;-74
2022/07/20 02:45:23;;;;;;;2.10;1.50;;;;;;;;;;2069390;28;20033;-73
2022/07/20 02:46:42;;;;;;;2.45;1.48;;;;;;;;;;2077820;28;20475;-73
2022/07/20 02:48:04;;;;;;;1.52;1.42;;;;;;;;;;2082261;28;20116;-73
2022/07/20 02:49:23;;;;;;;3.65;1.52;;;;;;;;;;2081569;28;20025;-74
2022/07/20 02:50:42;;;;;;;1.35;1.25;;;;;;;;;;2080974;28;20116;-73
2022/07/20 02:52:01;;;;;;;1.60;1.50;;;;;;;;;;2072572;28;20034;-73
2022/07/20 02:53:20;;;;;;;1.60;1.10;;;;;;;;;;2069656;28;20038;-73
2022/07/20 02:54:39;;;;;;;1.75;1.30;;;;;;;;;;2078299;28;20033;-75
2022/07/20 02:55:58;;;;;;;1.20;1.10;;;;;;;;;;2073036;28;20474;-74
2022/07/20 02:57:16;;;;;;;1.30;1.10;;;;;;;;;;2077776;28;20029;-73
2022/07/20 02:58:35;;;;;;;2.28;1.40;;;;;;;;;;2081238;28;20061;-74
2022/07/20 02:59:54;;;;;;;1.95;1.25;;;;;;;;;;2081972;28;20491;-73
2022/07/20 03:01:13;;;;;;;1.63;1.35;;;;;;;;;;2073082;28;20026;-73
2022/07/20 03:02:32;;;;;;;2.42;1.35;;;;;;;;;;2069680;28;20029;-73
2022/07/20 03:03:51;;;;;;;1.45;1.35;;;;;;;;;;2072893;28;20053;-74
2022/07/20 03:05:09;;;;;;;1.55;1.42;;;;;;;;;;2078219;28;20021;-74
2022/07/20 03:06:28;;;;;;;3.55;1.52;;;;;;;;;;2081273;28;20018;-74
2022/07/20 03:07:47;;;;;;;2.45;1.70;;;;;;;;;;2081912;28;20033;-73
2022/07/20 03:09:06;;;;;;;1.77;1.30;;;;;;;;;;2081730;28;20113;-73
2022/07/20 03:10:25;;;;;;;1.45;1.35;;;;;;;;;;2081569;28;20112;-73
2022/07/20 03:11:44;;;;;;;2.30;1.52;;;;;;;;;;2081299;28;20526;-73
2022/07/20 03:13:03;;;;;;;1.52;1.42;;;;;;;;;;2072334;28;20065;-73
2022/07/20 03:14:22;;;;;;;1.73;1.42;;;;;;;;;;2069655;28;20461;-73
2022/07/20 03:15:41;;;;;;;2.38;1.50;;;;;;;;;;2077930;28;20454;-73
2022/07/20 03:17:00;;;;;;;3.22;1.70;;;;;;;;;;2081727;28;20487;-74
2022/07/20 03:18:19;;;;;;;1.85;1.67;;;;;;;;;;2073084;28;20033;-73
2022/07/20 03:19:38;;;;;;;3.03;1.90;;;;;;;;;;2069161;28;20034;-73
2022/07/20 03:20:57;;;;;;;2.10;2.00;;;;;;;;;;2078190;28;20042;-73
2022/07/20 03:22:16;;;;;;;1.83;1.70;;;;;;;;;;2072953;28;20018;-73
2022/07/20 03:23:34;;;;;;;2.38;2.17;;;;;;;;;;2077666;28;20415;-73
2022/07/20 03:24:53;;;;;;;2.40;2.08;;;;;;;;;;2073008;28;20022;-73
2022/07/20 03:26:12;;;;;;;2.00;1.90;;;;;;;;;;2078588;28;20045;-73
2022/07/20 03:27:31;;;;;;;2.40;2.20;;;;;;;;;;2072382;28;20113;-73
2022/07/20 03:28:50;;;;;;;2.20;2.10;;;;;;;;;;2072629;28;20026;-73
2022/07/20 03:30:09;;;;;;;2.97;2.20;;;;;;;;;;2072591;28;20029;-73
2022/07/20 03:31:28;;;;;;;2.65;2.45;;;;;;;;;;2077837;28;20034;-75
2022/07/20 03:32:47;;;;;;;3.75;2.05;;;;;;;;;;2081516;28;20033;-73
2022/07/20 03:34:06;;;;;;;2.38;2.17;;;;;;;;;;2081546;28;20026;-74
2022/07/20 03:35:25;;;;;;;2.15;1.98;;;;;;;;;;2064401;28;20141;-76
2022/07/20 03:36:44;;;;;;;3.65;1.75;;;;;;;;;;2069105;28;20026;-74
2022/07/20 03:38:03;;;;;;;2.65;1.85;;;;;;;;;;2073897;28;20030;-74
2022/07/20 03:39:22;;;;;;;2.58;2.00;;;;;;;;;;2072258;28;20034;-73
2022/07/20 03:40:41;;;;;;;2.55;1.90;;;;;;;;;;2072266;28;20046;-73
2022/07/20 03:42:00;;;;;;;4.03;2.13;;;;;;;;;;2073086;28;20030;-73
2022/07/20 03:43:19;;;;;;;4.80;2.40;;;;;;;;;;2073640;28;20030;-73
2022/07/20 03:44:38;;;;;;;2.85;2.33;;;;;;;;;;2073259;28;20101;-74
2022/07/20 03:45:57;;;;;;;4.00;1.98;;;;;;;;;;2072947;28;20053;-73
2022/07/20 03:47:16;;;;;;;3.70;2.50;;;;;;;;;;2072579;28;20034;-74
2022/07/20 03:48:35;;;;;;;3.33;1.90;;;;;;;;;;2064660;28;20030;-73
2022/07/20 03:49:54;;;;;;;3.58;2.40;;;;;;;;;;2069757;28;20034;-74
2022/07/20 03:51:13;;;;;;;2.97;2.08;;;;;;;;;;2073223;28;20022;-74
2022/07/20 03:52:32;;;;;;;2.10;2.00;;;;;;;;;;2073009;28;20492;-73
2022/07/20 03:53:51;;;;;;;4.13;2.00;;;;;;;;;;2072952;28;20034;-73
2022/07/20 03:55:11;;;;;;;1.75;1.65;;;;;;;;;;2064163;28;20037;-73
2022/07/20 03:56:29;;;;;;;3.67;1.90;;;;;;;;;;2069096;28;20340;-74
2022/07/20 03:57:49;;;;;;;4.68;2.15;;;;;;;;;;2064306;28;20127;-73
2022/07/20 03:59:08;;;;;;;2.97;1.90;;;;;;;;;;2069703;28;20042;-74
2022/07/20 04:00:27;;;;;;;3.50;2.03;;;;;;;;;;2072653;28;20105;-73
2022/07/20 04:01:46;;;;;;;2.67;1.95;;;;;;;;;;2073194;28;20033;-74
2022/07/20 04:03:05;;;;;;;3.33;2.58;;;;;;;;;;2072258;28;20427;-73
2022/07/20 04:04:25;;;;;;;2.60;2.40;;;;;;;;;;2073012;28;20030;-74
2022/07/20 04:05:44;;;;;;;3.05;1.95;;;;;;;;;;2073395;28;20109;-74
2022/07/20 04:07:03;;;;;;;4.82;2.50;;;;;;;;;;2064392;28;20482;-74
2022/07/20 04:08:21;;;;;;;2.47;2.05;;;;;;;;;;2068419;28;20022;-74
2022/07/20 04:09:49;;;;;;;4.28;2.38;;;;;;;;;;2064572;28;20062;-73
2022/07/20 04:11:08;;;;;;;2.80;2.42;;;;;;;;;;2067590;28;20038;-74
2022/07/20 04:12:27;;;;;;;4.65;2.25;;;;;;;;;;2070734;28;20041;-74
2022/07/20 04:13:46;;;;;;;2.90;2.50;;;;;;;;;;2073224;28;20030;-74
2022/07/20 04:15:05;;;;;;;5.65;2.65;;;;;;;;;;2072920;28;20046;-73
2022/07/20 04:16:24;;;;;;;3.10;2.58;;;;;;;;;;2072626;28;20042;-74
2022/07/20 04:17:43;;;;;;;2.42;2.22;;;;;;;;;;2069275;28;20117;-73
2022/07/20 04:19:01;;;;;;;4.95;3.63;;;;;;;;;;2064191;28;20030;-73
2022/07/20 04:20:20;;;;;;;3.53;3.10;;;;;;;;;;2069010;28;20372;-75
2022/07/20 04:21:39;;;;;;;3.42;2.97;;;;;;;;;;2072707;28;20033;-75
2022/07/20 04:22:58;;;;;;;4.05;3.55;;;;;;;;;;2072579;28;20042;-73
2022/07/20 04:24:17;;;;;;;5.15;3.65;;;;;;;;;;2068988;28;20030;-73
2022/07/20 04:25:36;;;;;;;4.00;3.53;;;;;;;;;;2062363;28;20034;-73
2022/07/20 04:26:55;;;;;;;4.47;4.15;;;;;;;;;;2062063;28;20507;-74
2022/07/20 04:28:14;;;;;;;4.63;4.30;;;;;;;;;;2069319;28;20030;-73
2022/07/20 04:29:34;;;;;;;4.88;3.70;;;;;;;;;;2072793;28;20551;-75
2022/07/20 04:30:52;;;;;;;6.70;4.65;;;;;;;;;;2072601;28;20484;-73
2022/07/20 04:32:11;;;;;;;5.10;4.60;;;;;;;;;;2063700;28;20054;-73
2022/07/20 04:33:30;;;;;;;4.78;4.28;;;;;;;;;;2069258;28;20124;-74
2022/07/20 04:34:49;;;;;;;6.38;4.88;;;;;;;;;;2068595;28;20053;-73
2022/07/20 04:36:08;;;;;;;5.72;5.13;;;;;;;;;;2066089;28;20034;-73
2022/07/20 04:37:27;;;;;;;7.70;5.30;;;;;;;;;;2075258;28;20491;-73
2022/07/20 04:38:46;;;;;;;5.35;4.85;;;;;;;;;;2080835;28;20033;-74
2022/07/20 04:40:05;;;;;;;5.13;4.65;;;;;;;;;;2072677;28;20053;-72
2022/07/20 04:41:24;;;;;;;5.80;4.57;;;;;;;;;;2077939;28;20026;-74
2022/07/20 04:42:43;;;;;;;5.38;4.80;;;;;;;;;;2072092;28;20030;-73
2022/07/20 04:44:02;;;;;;;12.45;5.60;;;;;;;;;;2077047;28;20097;-73
2022/07/20 04:45:21;;;;;;;6.20;5.03;;;;;;;;;;2072435;28;20038;-74
2022/07/20 04:46:40;;;;;;;5.75;5.25;;;;;;;;;;2077152;28;20026;-74
2022/07/20 04:47:59;;;;;;;6.03;5.43;;;;;;;;;;2081210;28;20033;-74
2022/07/20 04:49:17;;;;;;;6.45;5.85;;;;;;;;;;2071660;28;20430;-73
2022/07/20 04:50:36;;;;;;;6.63;6.07;;;;;;;;;;2076529;28;20409;-73
2022/07/20 04:51:55;;;;;;;8.13;5.50;;;;;;;;;;2079113;28;20029;-73
2022/07/20 04:53:14;;;;;;;7.13;6.00;;;;;;;;;;2071971;28;20030;-75
2022/07/20 04:54:33;;;;;;;6.28;5.75;;;;;;;;;;2076749;28;20479;-74
2022/07/20 04:55:52;;;;;;;7.15;6.05;;;;;;;;;;2079625;28;20037;-74
2022/07/20 04:57:11;;;;;;;7.60;5.68;;;;;;;;;;2072103;28;20034;-73
2022/07/20 04:58:31;;;;;;;9.05;5.60;;;;;;;;;;2069033;28;20037;-73
2022/07/20 04:59:50;;;;;;;6.10;5.50;;;;;;;;;;2064158;28;20033;-73
2022/07/20 05:01:09;;;;;;;5.78;5.32;;;;;;;;;;2075459;28;20029;-73
2022/07/20 05:02:27;;;;;;;7.07;5.78;;;;;;;;;;2071870;28;20038;-73
2022/07/20 05:03:46;;;;;;;6.15;5.55;;;;;;;;;;2077054;28;20018;-73
2022/07/20 05:05:05;;;;;;;6.65;6.15;;;;;;;;;;2080743;28;20017;-74
2022/07/20 05:06:24;;;;;;;5.65;5.07;;;;;;;;;;2071170;28;20035;-73
2022/07/20 05:07:43;;;;;;;5.93;5.13;;;;;;;;;;2069031;28;20542;-74
2022/07/20 05:09:03;;;;;;;6.35;5.00;;;;;;;;;;2077502;28;20041;-73
2022/07/20 05:10:23;;;;;;;8.48;5.53;;;;;;;;;;2071701;28;20022;-73
2022/07/20 05:11:42;;;;;;;6.95;5.10;;;;;;;;;;2076819;28;20108;-73
2022/07/20 05:13:01;;;;;;;5.40;4.90;;;;;;;;;;2071131;28;20030;-73
2022/07/20 05:14:19;;;;;;;5.45;4.95;;;;;;;;;;2067966;28;20053;-74
2022/07/20 05:15:38;;;;;;;5.25;4.80;;;;;;;;;;2068758;28;20034;-73
2022/07/20 05:16:57;;;;;;;10.20;5.40;;;;;;;;;;2072286;28;20034;-73
2022/07/20 05:18:16;;;;;;;5.60;5.20;;;;;;;;;;2076749;28;20419;-73
2022/07/20 05:19:35;;;;;;;5.10;4.70;;;;;;;;;;2079668;28;20022;-73
2022/07/20 05:20:54;;;;;;;6.20;5.60;;;;;;;;;;2080504;28;20029;-73
2022/07/20 05:22:15;;;;;;;6.15;5.25;;;;;;;;;;2080693;28;20030;-74
2022/07/20 05:23:34;;;;;;;5.93;5.30;;;;;;;;;;2080240;28;20026;-74
2022/07/20 05:24:52;;;;;;;5.53;5.03;;;;;;;;;;2080624;28;20475;-73
2022/07/20 05:26:12;;;;;;;7.75;5.05;;;;;;;;;;2071813;28;20057;-73
2022/07/20 05:27:30;;;;;;;4.90;4.43;;;;;;;;;;2076209;28;20492;-73
2022/07/20 05:28:49;;;;;;;6.15;5.43;;;;;;;;;;2079850;28;20487;-73
2022/07/20 05:30:08;;;;;;;4.95;4.50;;;;;;;;;;2080022;28;20490;-74
2022/07/20 05:31:27;;;;;;;5.90;5.28;;;;;;;;;;2071473;28;20053;-73
2022/07/20 05:32:46;;;;;;;6.93;4.93;;;;;;;;;;2077148;28;20029;-73
2022/07/20 05:34:05;;;;;;;5.22;4.78;;;;;;;;;;2080422;28;20041;-73
2022/07/20 05:35:23;;;;;;;5.35;4.80;;;;;;;;;;2080705;28;20442;-73
2022/07/20 05:36:42;;;;;;;5.32;4.28;;;;;;;;;;2080819;28;20423;-73
2022/07/20 05:38:02;;;;;;;4.95;4.55;;;;;;;;;;2080725;28;20041;-74
2022/07/20 05:39:21;;;;;;;5.22;4.82;;;;;;;;;;2071845;28;20042;-73
2022/07/20 05:40:39;;;;;;;5.05;4.55;;;;;;;;;;2076998;28;20025;-73
2022/07/20 05:41:58;;;;;;;4.80;4.40;;;;;;;;;;2081039;28;20034;-73
2022/07/20 05:43:17;;;;;;;5.18;4.57;;;;;;;;;;2071778;28;20112;-73
2022/07/20 05:44:36;;;;;;;4.90;4.40;;;;;;;;;;2077337;28;20148;-74
2022/07/20 05:45:55;;;;;;;4.65;4.10;;;;;;;;;;2080538;28;20515;-73
2022/07/20 05:47:14;;;;;;;5.18;4.03;;;;;;;;;;2080680;28;20041;-73
2022/07/20 05:48:33;;;;;;;5.60;4.07;;;;;;;;;;2080605;28;20033;-73
2022/07/20 05:49:52;;;;;;;5.78;4.72;;;;;;;;;;2071718;28;20088;-73
2022/07/20 05:51:11;;;;;;;4.55;4.05;;;;;;;;;;2072115;28;20046;-73
2022/07/20 05:52:29;;;;;;;6.80;4.22;;;;;;;;;;2071883;28;20033;-73
2022/07/20 05:53:48;;;;;;;4.57;4.28;;;;;;;;;;2076926;28;20076;-73
2022/07/20 05:55:07;;;;;;;4.65;4.10;;;;;;;;;;2079825;28;20254;-73
2022/07/20 05:56:26;;;;;;;4.43;4.03;;;;;;;;;;2071790;28;20521;-74
2022/07/20 05:57:45;;;;;;;6.03;4.25;;;;;;;;;;2077420;28;20034;-74
2022/07/20 05:59:04;;;;;;;4.00;3.70;;;;;;;;;;2080709;28;20069;-74
2022/07/20 06:00:23;;;;;;;5.25;3.70;;;;;;;;;;2080524;28;20455;-74
2022/07/20 06:01:44;;;;;;;5.97;4.68;;;;;;;;;;2080186;28;20503;-74
2022/07/20 06:03:03;;;;;;;4.50;4.20;;;;;;;;;;2080308;28;20112;-74
2022/07/20 06:04:22;;;;;;;4.10;3.80;;;;;;;;;;2080557;28;20388;-74
2022/07/20 06:05:41;;;;;;;5.15;4.00;;;;;;;;;;2080831;28;20046;-74
2022/07/20 06:07:00;;;;;;;5.38;4.30;;;;;;;;;;2080068;28;20109;-74
2022/07/20 06:08:19;;;;;;;5.40;4.30;;;;;;;;;;2079283;28;20029;-74
2022/07/20 06:09:38;;;;;;;4.40;4.10;;;;;;;;;;2071130;28;20065;-74
2022/07/20 06:10:57;;;;;;;7.00;4.68;;;;;;;;;;2077201;28;20113;-74
2022/07/20 06:12:16;;;;;;;4.25;3.90;;;;;;;;;;2080835;28;20033;-73
2022/07/20 06:13:35;;;;;;;4.07;3.78;;;;;;;;;;2080640;28;20053;-74
2022/07/20 06:14:54;;;;;;;4.95;4.50;;;;;;;;;;2071089;28;20073;-74
2022/07/20 06:16:13;;;;;;;5.03;4.30;;;;;;;;;;2076018;28;20041;-74
2022/07/20 06:17:35;;;;;;;6.80;4.47;;;;;;;;;;2076151;28;20108;-75
2022/07/20 06:18:54;;;;;;;4.50;4.10;;;;;;;;;;2079172;28;20042;-73
2022/07/20 06:20:14;;;;;;;4.35;4.03;;;;;;;;;;2080391;28;20033;-75
2022/07/20 06:21:33;;;;;;;5.65;4.15;;;;;;;;;;2071894;28;20021;-74
2022/07/20 06:22:51;;;;;;;4.55;3.92;;;;;;;;;;2077798;28;20098;-74
2022/07/20 06:24:10;;;;;;;4.93;4.45;;;;;;;;;;2072974;28;20030;-74
2022/07/20 06:25:29;;;;;;;5.90;4.50;;;;;;;;;;2078582;28;20101;-74
2022/07/20 06:26:48;;;;;;;6.93;4.57;;;;;;;;;;2082053;28;20443;-74
2022/07/20 06:28:07;;;;;;;4.05;3.75;;;;;;;;;;2082133;28;20399;-74
2022/07/20 06:29:26;;;;;;;4.63;4.10;;;;;;;;;;2080869;28;20116;-75
2022/07/20 06:30:45;;;;;;;5.28;4.68;;;;;;;;;;2081550;28;20534;-74
2022/07/20 06:32:04;;;;;;;4.82;4.43;;;;;;;;;;2081478;28;20038;-74
2022/07/20 06:33:23;;;;;;;4.18;3.88;;;;;;;;;;2082103;28;20061;-74
2022/07/20 06:34:42;;;;;;;4.55;3.85;;;;;;;;;;2081579;28;20410;-74
2022/07/20 06:36:01;;;;;;;5.38;4.03;;;;;;;;;;2080820;28;20038;-74
2022/07/20 06:37:20;;;;;;;4.10;3.70;;;;;;;;;;2081842;28;20057;-74
2022/07/20 06:38:39;;;;;;;6.60;4.35;;;;;;;;;;2072628;28;20030;-75
2022/07/20 06:39:58;;;;;;;4.20;3.80;;;;;;;;;;2078619;28;20506;-74
2022/07/20 06:41:16;;;;;;;6.20;4.40;;;;;;;;;;2082226;28;20148;-74
2022/07/20 06:42:35;;;;;;;5.43;4.35;;;;;;;;;;2072962;28;20018;-74
2022/07/20 06:43:54;;;;;;;4.72;4.32;;;;;;;;;;2077376;28;20057;-74
2022/07/20 06:45:13;;;;;;;4.30;3.95;;;;;;;;;;2081569;28;20065;-73
2022/07/20 06:46:32;;;;;;;6.60;4.85;;;;;;;;;;2082135;28;20037;-75
2022/07/20 06:47:51;;;;;;;4.65;3.88;;;;;;;;;;2073309;28;20026;-75
2022/07/20 06:49:10;;;;;;;7.38;4.07;;;;;;;;;;2072512;28;20025;-74
2022/07/20 06:50:28;;;;;;;4.15;3.85;;;;;;;;;;2079301;28;20104;-74
2022/07/20 06:51:48;;;;;;;4.18;3.80;;;;;;;;;;2081655;28;20033;-74
2022/07/20 06:53:06;;;;;;;4.38;3.97;;;;;;;;;;2081926;28;20034;-75
2022/07/20 06:54:25;;;;;;;4.60;4.28;;;;;;;;;;2072821;28;20113;-74
2022/07/20 06:55:45;;;;;;;4.78;4.25;;;;;;;;;;2078017;28;20120;-74
2022/07/20 06:57:04;;;;;;;4.38;3.97;;;;;;;;;;2071889;28;20086;-75
2022/07/20 06:58:22;;;;;;;4.80;4.07;;;;;;;;;;2078291;28;20029;-74
2022/07/20 06:59:41;;;;;;;4.70;4.15;;;;;;;;;;2072576;28;20038;-75
2022/07/20 07:01:00;;;;;;;5.32;4.18;;;;;;;;;;2077948;28;20033;-74
2022/07/20 07:02:19;;;;;;;4.60;4.20;;;;;;;;;;2081863;28;20395;-74
2022/07/20 07:03:38;;;;;;;4.35;3.90;;;;;;;;;;2081384;28;20108;-73
2022/07/20 07:04:57;;;;;;;4.72;4.15;;;;;;;;;;2081538;28;20511;-74
2022/07/20 07:06:16;;;;;;;5.22;3.90;;;;;;;;;;2072113;28;20033;-74
2022/07/20 07:07:35;;;;;;;4.40;4.00;;;;;;;;;;2078578;28;20438;-74
2022/07/20 07:08:55;;;;;;;4.50;4.05;;;;;;;;;;2072933;28;20050;-74
2022/07/20 07:10:14;;;;;;;6.78;4.07;;;;;;;;;;2077755;28;20033;-74
2022/07/20 07:11:33;;;;;;;4.68;4.28;;;;;;;;;;2080673;28;20029;-74
2022/07/20 07:12:52;;;;;;;5.25;4.07;;;;;;;;;;2081386;28;20120;-74
2022/07/20 07:14:11;;;;;;;10.60;4.00;;;;;;;;;;2072877;28;20033;-74
2022/07/20 07:15:30;;;;;;;4.10;3.80;;;;;;;;;;2077939;28;20021;-75
2022/07/20 07:16:49;;;;;;;5.35;4.15;;;;;;;;;;2081422;28;20048;-74
2022/07/20 07:18:08;;;;;;;5.95;4.20;;;;;;;;;;2081731;28;20034;-74
2022/07/20 07:19:27;;;;;;;4.68;4.22;;;;;;;;;;2080760;28;20610;-74
2022/07/20 07:20:46;;;;;;;4.53;4.18;;;;;;;;;;2072700;28;20022;-76
2022/07/20 07:22:05;;;;;;;5.95;4.68;;;;;;;;;;2078398;28;20065;-74
2022/07/20 07:23:24;;;;;;;5.65;4.35;;;;;;;;;;2081083;28;20420;-75
2022/07/20 07:24:43;;;;;;;6.65;5.00;;;;;;;;;;2072472;28;20053;-74
2022/07/20 07:26:02;;;;;;;12.18;5.20;;;;;;;;;;2077172;28;20018;-74
2022/07/20 07:27:21;;;;;;;4.97;4.03;;;;;;;;;;2072350;28;20037;-74
2022/07/20 07:28:40;;;;;;;6.60;4.10;;;;;;;;;;2069505;28;20061;-75
2022/07/20 07:29:59;;;;;;;6.25;4.18;;;;;;;;;;2066109;28;20414;-74
2022/07/20 07:31:18;;;;;;;6.07;3.97;;;;;;;;;;2067986;28;20423;-74
2022/07/20 07:32:37;;;;;;;6.78;4.00;;;;;;;;;;2077445;28;20273;-74
2022/07/20 07:33:56;;;;;;;4.75;4.28;;;;;;;;;;2082447;28;20033;-74
2022/07/20 07:35:15;;;;;;;4.97;4.55;;;;;;;;;;2072501;28;20077;-74
2022/07/20 07:36:34;;;;;;;9.10;4.20;;;;;;;;;;2078254;28;20026;-74
2022/07/20 07:37:53;;;;;;;9.38;4.28;;;;;;;;;;2072854;28;20057;-74
2022/07/20 07:39:12;;;;;;;10.40;3.85;;;;;;;;;;2077510;28;20394;-74
2022/07/20 07:40:31;;;;;;;5.25;4.30;;;;;;;;;;2072487;28;20038;-74
2022/07/20 07:41:50;;;;;;;6.15;4.47;;;;;;;;;;2078261;28;20025;-74
2022/07/20 07:43:08;;;;;;;4.65;3.50;;;;;;;;;;2081524;28;20022;-74
2022/07/20 07:44:27;;;;;;;5.78;4.20;;;;;;;;;;2072322;28;20029;-74
2022/07/20 07:45:46;;;;;;;4.72;4.18;;;;;;;;;;2069294;28;20034;-74
2022/07/20 07:47:05;;;;;;;5.88;3.90;;;;;;;;;;2072288;28;20026;-75
2022/07/20 07:48:24;;;;;;;5.32;4.10;;;;;;;;;;2069180;28;20109;-75
2022/07/20 07:49:43;;;;;;;5.18;3.63;;;;;;;;;;2078031;28;20442;-74
2022/07/20 07:51:02;;;;;;;5.32;3.95;;;;;;;;;;2080865;28;20033;-74
2022/07/20 07:52:20;;;;;;;4.05;3.75;;;;;;;;;;2079731;28;20490;-74
2022/07/20 07:53:39;;;;;;;3.67;3.40;;;;;;;;;;2079192;28;20479;-74
2022/07/20 07:54:58;;;;;;;4.28;3.95;;;;;;;;;;2081168;28;20032;-74
2022/07/20 07:56:18;;;;;;;6.40;4.32;;;;;;;;;;2081536;28;20108;-74